KFEW/FEW METAR and TAF weather

Enter ICAO airport designator
Station Type Date Time Source
KFEW METAR 2022/11/30 09:55 UTC NOAA

KFEW 300955Z 32008KT 10SM CLR M15/M20 A3004 RMK AO2A SLPNO T11461199 PWINO $


Station Type Date Time Source
KFEW Decoded METAR 2022/11/30 09:55 UTC NOAA

Station name not available
Nov 30, 2022 - 04:55 AM EST / 2022.11.30 0955 UTC
Wind: from the NW (320 degrees) at 9 MPH (8 KT):0
Visibility: 10 mile(s):0
Sky conditions: clear
Temperature: 5.7 F (-14.6 C)
Windchill: -7 F (-22 C):2
Dew Point: -3.8 F (-19.9 C)
Relative Humidity: 64%
Pressure (altimeter): 30.04 in. Hg (1017 hPa)
ob: KFEW 300955Z 32008KT 10SM CLR M15/M20 A3004 RMK AO2A SLPNO T11461199 PWINO
cycle: 10

Station Type Date Time Source
KFEW TAF UTC NOAA

Error!

Example: see airport list